Boydton, VA

10:24 AM EST on December 29, 2014 (GMT -0500)
HADS JOHN H. KERR RESERVOIR NEAR BOYD VA US USARMY-COE | Change Station
CLOSE
Current Station
Personal Weather Station
Location: Baskerville, VA
Elevation: 250 ft
Nearby Weather Stations

Elev 250 ft 36.60 °N, 78.30 °W | Updated 1 hour ago

Rain
Rain
47 °F
Feels Like 47 °F
N
Wind Variable Wind from North
Gusts 0.0 mph

Today
High -- | Low -- °F
--% Chance of Precip.
Yesterday
High -- | Low -- °F
Precip. -- in
7:24 AM 5:05 PM
First Quarter, 60% visible
Pressure 30.23 in
Visibility 10.0 miles
Clouds Overcast 500 ft
Windchill 47 °F
Dew Point Not available.
Humidity Not available.
Rainfall 0.20 in
Snow Depth Not available.
UV 1 out of 12
Pollen .30 out of 12
Air Quality Not available.
Flu Activity Not available.
METAR KAVC 291516Z AUTO 04004KT 10SM OVC005 06/05 A3023 RMK AO2 T00560051

More Conditions Fewer Conditions

Pressure 30.23 in
Visibility 10.0 miles
Clouds Overcast 500 ft
Windchill 47 °F
Dew Point Not available.
Humidity Not available.
Rainfall 0.20 in
Snow Depth Not available.
UV 1 out of 12
Pollen .30 out of 12
Air Quality Not available.
Flu Activity Not available.
METAR KAVC 291516Z AUTO 04004KT 10SM OVC005 06/05 A3023 RMK AO2 T00560051

More Conditions Fewer Conditions

10-Day Weather Forecast

Almanac

Astronomy

Dec. 29, 2014 Rise Set
Actual Time
Civil Twilight
Nautical Twilight
Astronomical Twilight
Moon
Length of Visible Light
Length of Day
Tomorrow will be .
, % of the Moon is Illuminated

Today's Extremes

State Highs State Lows

Community

WunderPhotos

Upload Photos

1,781,604 photos uploaded!

WunderBlogs® & News

Nearby

Air Quality

  Air Quality AQ Index Pollutant
Not available.

Snow Depth

Station Depth Elevation

Earthquake Activity

City Distance Mag. Time & Date
Minimum magnitude displayed is 2.5.

Coastal Water Temperatures

Place Temperature

Nearby Weather Stations